Create Custom Reports and Graphics: Custom Report

Bell Hill-West

Current Conditions

1/20/21 5:15 PM (-08:00)
Updated Every 15 Minutes
Temp 53.0 °F   3.5
RH 37 %   19
Dew Pt 27.2 °F   14.3
Wet Bulb 41.9 °F   1.8
Wind Dir N | 0 °
Wind Spd 0.0 mph   4.9
Wind Gust 0.0 mph   9.5
Solar Rad 17 W/m2   3
BatVolt 12.8 V   0.0

Today & Yesterday

Bell Hill-West

1/20/21 5:15 PM (-08:00)
Updated Every 15 Minutes
Daily Max Temp 63.6 °F   3.4
Time of Max Temp 1511
Daily Min Temp 26.9 °F   20.1
Time of Min Temp 0738
Daily Max Wind 8.8 mph   22.5
Time of Max Wind 1526
Max Wind Dir WNW | 293 °
Daily Rain 0.00 In
Daily ETo 0.057 in   0.075
Yesterday's Max Temp 60.3 °F
Yesterday’s Min Temp 38.9 °F
Yesterday's Max Wind 31.3 mph
Yesterday's Rainfall 0.00 In
Yesterday's ETo 0.13 In

Last 48 Hours

Bell Hill-West

Hourly Data | America/Los_Angeles
as of 1/20/21 5:23 PM PST
Date & Time Temp (°F) WindChill (°F) RH (%) Dew Pt (°F) Wet Bulb (°F) Wind Dir (°) Wind Spd (mph) Wind Gust (mph) Wind Gst Dir (°) Solar Rad (W/m2) Latest Rain (In) Daily Rain (In) Daily Min Temp (°F) Daily Max Temp (°F) Daily ETo (in)
1/20/21 - 1700 61.0 - 22 21.8 44.1 WSW | 241 0.1 3.8 WSW | 244 109 0.00 0.00 26.9 63.6 0.057
1/20/21 - 1600 63.0 - 18 19.1 44.3 W | 267 0.9 8.8 WNW | 293 273 0.00 0.00 26.9 63.6 0.057
1/20/21 - 1500 62.0 - 21 21.0 44.3 WNW | 283 0.0 3.8 NNW | 336 417 0.00 0.00 26.9 63.1 0.052
1/20/21 - 1400 59.3 - 26 24.0 43.9 NNE | 18 0.0 1.4 NNE | 18 518 0.00 0.00 26.9 61.1 0.045
1/20/21 - 1300 56.2 - 29 24.0 42.5 NNW | 347 1.9 6.1 NNE | 19 560 0.00 0.00 26.9 58.0 0.035
1/20/21 - 1200 53.7 - 29 22.4 40.9 N | 11 3.3 6.4 NNE | 18 536 0.00 0.00 26.9 55.1 0.023
1/20/21 - 1100 50.6 - 32 21.9 39.2 NW | 316 0.0 3.8 NNW | 334 453 0.00 0.00 26.9 52.9 0.012
1/20/21 - 1000 43.7 - 46 24.0 36.1 N | 0 0.0 0.0 S | 190 314 0.00 0.00 26.9 48.3 0.005
1/20/21 - 0900 31.8 - 76 25.1 29.3 N | 0 0.0 0.0 S | 175 95 0.00 0.00 26.9 41.5 0.000
1/20/21 - 0800 27.7 - 83 23.1 26.1 N | 0 0.0 0.0 S | 172 11 0.00 0.00 26.9 41.5 0.000
1/20/21 - 0700 28.2 - 81 23.2 26.4 N | 0 0.0 0.0 SSW | 213 0 0.00 0.00 27.4 41.5 0.000
1/20/21 - 0600 28.6 - 80 23.2 26.7 N | 0 0.0 0.0 S | 180 0 0.00 0.00 28.0 41.5 0.000
1/20/21 - 0500 29.9 - 76 23.4 27.6 N | 0 0.0 0.0 S | 189 0 0.00 0.00 28.9 41.5 0.000
1/20/21 - 0400 31.1 - 74 23.6 28.4 N | 0 0.0 0.0 SSE | 164 0 0.00 0.00 29.9 41.5 0.000
1/20/21 - 0300 33.5 - 69 24.3 30.2 N | 0 0.0 0.0 SSE | 165 0 0.00 0.00 31.7 41.5 0.000
1/20/21 - 0200 36.9 - 59 24.0 32.2 N | 0 0.0 0.0 S | 182 0 0.00 0.00 35.0 41.5 0.000
1/20/21 - 0100 39.4 - 52 23.3 33.5 N | 0 0.0 0.0 S | 190 0 0.00 0.00 37.1 41.5 0.000
1/20/21 - 0000 42.6 - 42 20.6 34.6 N | 0 0.0 0.0 S | 182 0 0.00 0.00 38.9 60.3 0.134
1/19/21 - 2300 49.6 - 26 15.7 37.3 SSE | 164 0.1 5.1 SSW | 211 0 0.00 0.00 38.9 60.3 0.134
1/19/21 - 2200 51.5 - 23 14.6 38.0 ESE | 109 0.4 7.4 ENE | 74 0 0.00 0.00 38.9 60.3 0.134
1/19/21 - 2100 44.0 - 41 20.0 35.2 E | 98 0.8 12.8 SE | 125 0 0.00 0.00 38.9 60.3 0.134
1/19/21 - 2000 42.6 - 41 20.2 34.5 S | 184 0.1 7.1 S | 186 0 0.00 0.00 39.5 60.3 0.134
1/19/21 - 1900 51.0 - 24 14.5 37.8 ENE | 62 0.2 6.1 S | 184 0 0.00 0.00 45.5 60.3 0.134
1/19/21 - 1800 56.0 - 17 12.0 39.8 NNE | 31 5.0 16.5 NNE | 31 5 0.00 0.00 47.0 60.3 0.134
1/19/21 - 1700 58.7 - 15 11.5 40.9 NNE | 25 5.8 17.8 NNE | 24 104 0.00 0.00 47.0 60.3 0.132
1/19/21 - 1600 59.8 - 13 9.7 41.2 NE | 34 8.7 17.5 NNE | 31 280 0.00 0.00 47.0 60.3 0.127
1/19/21 - 1500 59.8 - 13 9.4 41.1 NE | 39 9.1 20.9 NE | 43 422 0.00 0.00 47.0 60.3 0.117
1/19/21 - 1400 59.6 - 13 8.9 41.0 NE | 47 8.5 19.5 NE | 38 512 0.00 0.00 47.0 60.3 0.103
1/19/21 - 1300 58.7 - 14 9.4 40.6 NE | 42 10.5 24.2 NNE | 32 571 0.00 0.00 47.0 59.4 0.089
1/19/21 - 1200 57.0 - 15 9.0 39.7 NE | 37 15.2 26.6 NE | 46 542 0.00 0.00 47.0 58.0 0.072
1/19/21 - 1100 55.4 - 15 9.2 39.0 NE | 40 13.9 27.2 NE | 49 461 0.00 0.00 47.0 56.6 0.055
1/19/21 - 1000 53.3 - 18 11.2 38.3 NE | 35 14.6 27.2 NNE | 28 326 0.00 0.00 47.0 55.9 0.041
1/19/21 - 0900 49.7 45.0 24 14.5 37.1 NNE | 33 12.3 22.2 NNE | 29 89 0.00 0.00 47.0 55.9 0.029
1/19/21 - 0800 47.8 41.9 27 15.9 36.4 NNE | 26 15.1 24.2 NNW | 342 8 0.00 0.00 47.0 55.9 0.022
1/19/21 - 0700 47.6 41.6 28 16.4 36.4 NNE | 31 15.2 26.2 NNE | 31 0 0.00 0.00 47.0 55.9 0.019
1/19/21 - 0600 47.8 41.5 29 17.2 36.6 NE | 34 16.3 28.2 NE | 48 0 0.00 0.00 47.0 55.9 0.016
1/19/21 - 0500 49.4 43.1 25 15.5 37.1 NE | 34 18.7 30.9 NNE | 28 0 0.00 0.00 48.2 55.9 0.013
1/19/21 - 0400 50.0 - 25 15.2 37.4 NE | 37 16.2 31.3 NNE | 25 0 0.00 0.00 49.3 55.9 0.010
1/19/21 - 0300 51.0 - 23 14.7 37.8 NE | 35 14.2 27.2 NNE | 23 0 0.00 0.00 50.3 55.9 0.007
1/19/21 - 0200 51.7 - 21 13.2 37.9 NNE | 14 6.4 24.2 NNE | 24 0 0.00 0.00 50.3 55.9 0.003
1/19/21 - 0100 54.0 - 17 10.4 38.5 NNE | 24 3.9 19.2 NNE | 27 0 0.00 0.00 51.5 55.9 0.001
1/19/21 - 0000 56.9 - 14 8.6 39.7 NE | 36 3.7 19.8 N | 9 0 0.00 0.00 37.6 72.8 0.113
1/18/21 - 2300 58.4 - 15 10.2 40.6 NNE | 29 4.5 17.8 NNE | 17 0 0.00 0.00 37.6 72.8 0.112
1/18/21 - 2200 60.4 - 13 9.7 41.5 NE | 42 6.7 16.8 NE | 43 0 0.00 0.00 37.6 72.8 0.110
1/18/21 - 2100 60.5 - 14 11.0 41.7 NNE | 27 8.2 15.5 ENE | 58 0 0.00 0.00 37.6 72.8 0.107
1/18/21 - 2000 56.0 - 23 16.6 40.8 NE | 37 5.2 20.5 NNE | 29 0 0.00 0.00 37.6 72.8 0.103
1/18/21 - 1900 59.9 - 15 11.7 41.5 NE | 41 3.9 10.5 NE | 45 0 0.00 0.00 37.6 72.8 0.101
1/18/21 - 1800 61.0 - 17 14.2 42.5 ESE | 123 1.5 9.5 E | 79 3 0.00 0.00 37.6 72.8 0.100
1/18/21 - 1700 68.4 - 11 11.9 45.2 ENE | 64 3.7 12.1 E | 85 104 0.00 0.00 37.6 72.8 0.100
Max 68.4 45.0 83 25.1 45.2 - 18.7 31.3 - 571 0.00 0.00 51.5 72.8 0.134
Avg 50.3 42.6 32 16.6 37.6 - 5.2 12.8 - 137 0.00 - - - -
Min 27.7 41.5 11 8.6 26.1 - 0.0 0.0 - 0 0.00 0.00 26.9 41.5 0.000
Total - - - - - - - - - - 0.00 - - - -

Last 30 Days

Bell Hill-West

Daily Data | America/Los_Angeles
as of 1/20/21 5:23 PM PST
Date Daily Max Temp (°F) Time of Max Temp Daily Min Temp (°F) Time of Min Temp Daily Rain (In) Monthly Rain (In) Seasonal Rainfall (In) Wind Spd (mph) Daily Max Wind (mph) Time of Max Wind Max Wind Dir (°) Daily ETo (in) 7 Day ETo (in) Daily Solar Rad (Cal/cm2) Dew Pt (°F) Max RH (%) Min RH (%) Hrs 70-85F (hrs) Hrs > 95F (hrs) GDDs (DL) GDDs (Mx/Mn) Hrs <= 32F (hrs) Hrs <= 28F (hrs) Chilling <=45F (hrs) Chill Hrs 32-45F (hrs) Utah Chilling (Units) Chilling <=45F Seas (hrs) Chill Hrs 32-45 Seas (hrs) Utah Chilling Seas (Units) Degree Hrs (hrs) Max 1 Min Rain (In) Max 1 Min Rain Time Max 15 Min Rain (In) Max 15 Min Precip Time Max 60 Min Rain (In) Max 60 Min Rain Time Bat Volt Min Day (V)
1/19/21 60.3 1350 38.9 2032 0.00 1.25 4.64 8.8 31.3 0317 NNE | 25 0.134 0.52 286 13.7 56 12 0.00 0.00 3.4 0.0 0.0 0.0 2.2 2.2 4.5 985 692 463 0.0 - - - - - - 12.0
1/18/21 72.8 1411 37.6 0751 0.00 1.25 4.64 4.3 20.5 1945 NNE | 29 0.113 0.41 289 20.1 88 7 5.70 0.00 9.6 5.2 0.0 0.0 7.0 7.0 0.0 983 690 460 44.1 - - - - - - 12.1
1/17/21 74.9 1613 36.7 0716 0.00 1.25 4.64 2.2 6.8 1224 NNE | 16 0.069 0.33 276 42.2 100 26 2.29 0.00 5.9 5.8 0.0 0.0 9.0 9.0 4.0 976 683 460 26.5 - - - - - - 12.2
1/16/21 72.0 1507 38.5 0730 0.00 1.25 4.64 2.1 7.1 1250 NE | 49 0.067 0.28 260 42.7 100 28 3.23 0.00 5.6 5.3 0.0 0.0 7.9 7.9 5.0 967 674 456 24.1 - - - - - - 12.2
1/15/21 69.9 1514 35.9 0741 0.00 1.25 4.64 1.3 8.1 1103 N | 4 0.055 0.27 232 42.1 100 27 0.00 0.00 4.6 2.9 0.0 0.0 9.2 9.2 2.5 959 666 452 8.2 - - - - - - 12.2
1/14/21 64.3 1526 40.6 2354 0.01 1.25 4.64 1.4 7.8 1313 NNE | 29 0.046 0.26 219 47.3 100 61 0.00 0.00 2.0 2.4 0.0 0.0 2.8 2.8 5.0 950 657 450 0.0 0.01 0319 0.01 0333 0.01 0417 12.1
1/13/21 64.3 1503 42.8 2157 0.01 1.24 4.63 1.0 8.4 1254 NNE | 25 0.043 0.24 185 51.0 100 71 0.00 0.00 4.1 3.6 0.0 0.0 1.7 1.7 5.5 947 654 446 0.0 0.01 0650 0.01 0704 0.01 0749 12.0
1/12/21 50.9 1201 39.4 0129 0.03 1.23 4.62 0.6 6.1 1235 NNE | 18 0.017 0.22 70 45.6 100 80 0.00 0.00 0.0 0.0 0.0 0.0 8.8 8.8 17.0 945 652 442 0.0 0.01 1515 0.01 1529 0.02 1559 12.2
1/11/21 54.0 1515 33.8 0213 0.00 1.20 4.59 1.1 8.1 1138 NNE | 22 0.032 0.23 171 41.1 100 70 0.00 0.00 0.2 0.0 0.0 0.0 18.9 18.9 20.5 936 644 426 0.0 - - - - - - 12.1
1/10/21 50.5 1545 33.0 0236 0.03 1.20 4.59 1.3 12.5 1027 ENE | 68 0.022 0.23 108 40.2 100 81 0.00 0.00 0.0 0.0 0.0 0.0 15.9 15.9 18.0 917 625 406 0.0 0.01 0656 0.01 0710 0.02 0731 12.1
1/9/21 59.0 1425 28.1 0715 0.00 1.17 4.56 1.6 13.2 1336 WSW | 251 0.051 0.23 250 33.6 100 27 0.00 0.00 1.5 0.0 8.2 0.0 17.0 8.7 7.0 902 609 389 0.0 - - - - - - 12.2
1/8/21 56.0 1536 32.1 2306 0.21 1.17 4.56 1.7 13.2 1233 NW | 318 0.046 0.19 208 40.1 100 31 0.00 0.00 0.9 0.0 0.0 0.0 12.6 12.6 0.0 885 600 383 0.0 0.01 0903 0.03 0504 0.07 0529 12.1
1/7/21 52.0 1535 39.3 0646 0.04 0.96 4.35 0.3 8.1 2244 W | 275 0.034 0.19 182 42.0 100 72 0.00 0.00 0.1 0.0 0.0 0.0 18.0 18.0 22.0 872 588 383 0.0 0.01 2356 0.01 0001 0.03 0001 11.9
1/6/21 46.5 1421 31.0 0635 0.21 0.92 4.31 0.3 6.4 1253 NNE | 14 0.015 0.19 78 39.7 100 87 0.00 0.00 0.0 0.0 1.2 0.0 20.9 19.6 16.0 854 570 362 0.0 0.01 1614 0.05 1106 0.13 1142 12.1
1/5/21 54.4 1547 29.0 0555 0.01 0.71 4.10 0.3 5.4 1211 N | 0 0.031 0.22 180 36.6 100 57 0.00 0.00 0.2 0.0 5.8 0.0 20.2 14.3 14.0 833 550 347 0.0 0.01 0809 0.01 0823 0.01 0908 12.1
1/4/21 53.0 1032 34.8 2359 0.62 0.70 4.09 4.1 23.5 1302 WSW | 253 0.027 0.24 103 44.0 100 72 0.00 0.00 0.4 0.0 0.0 0.0 5.6 5.6 18.0 813 536 334 0.0 0.01 1138 0.06 0816 0.19 0831 12.1
1/3/21 54.4 1504 43.3 0108 0.01 0.08 3.47 0.2 8.4 1625 SSW | 198 0.023 0.26 108 45.8 100 75 0.00 0.00 0.8 0.0 0.0 0.0 7.3 7.3 7.0 807 530 316 0.0 0.01 2340 0.01 2354 0.01 0001 12.1
1/2/21 49.7 1449 43.3 2328 0.02 0.07 3.46 0.1 5.8 0806 ENE | 69 0.015 0.27 62 45.4 100 85 0.00 0.00 0.0 0.0 0.0 0.0 7.8 7.8 22.0 800 523 310 0.0 0.01 0247 0.01 0301 0.01 0346 12.0
1/1/21 57.6 1451 28.9 0701 0.05 0.05 3.44 0.7 15.8 1505 SW | 222 0.041 0.29 203 36.6 100 36 0.00 0.00 0.6 0.0 8.6 0.0 11.5 2.9 7.5 792 515 290 0.0 0.01 2155 0.01 2209 0.02 2110 12.1
12/31/20 54.2 1446 30.5 0739 0.00 2.66 3.39 0.1 9.5 0036 WNW | 300 0.036 0.28 197 36.8 100 60 0.00 0.00 0.3 0.0 2.3 0.0 16.1 13.8 0.0 781 512 283 0.0 - - - - - - 12.1
12/30/20 59.3 1342 25.7 0246 0.06 2.66 3.39 1.7 21.2 2107 SW | 214 0.051 0.29 212 32.4 100 14 0.00 0.00 1.2 0.0 8.4 3.0 10.2 1.8 8.0 765 498 283 0.0 0.01 2023 0.03 1733 0.04 1818 12.2
12/29/20 58.4 1430 25.2 0755 0.00 2.60 3.33 0.2 5.8 1747 S | 186 0.044 0.28 246 29.4 100 27 0.00 0.00 1.1 0.0 12.8 5.1 17.5 4.7 0.0 754 496 276 0.0 - - - - - - 12.1
12/28/20 55.9 1415 30.1 2359 0.00 2.60 3.33 0.7 8.8 1356 SSW | 212 0.047 0.28 230 32.8 100 36 0.00 0.00 0.8 0.0 5.9 0.0 17.1 11.2 0.0 737 492 276 0.0 - - - - - - 12.2
12/27/20 52.6 1456 30.5 0711 0.00 2.60 3.33 1.0 13.2 1401 NE | 55 0.036 0.28 186 34.2 100 39 0.00 0.00 0.1 0.0 2.0 0.0 19.2 17.3 13.5 720 480 276 0.0 - - - - - - 12.2
12/26/20 53.5 1456 32.6 2349 0.16 2.60 3.33 2.8 16.8 0528 SSW | 206 0.039 0.29 179 40.5 100 52 0.00 0.00 0.4 0.0 0.0 0.0 8.8 8.8 0.0 701 463 264 0.0 0.01 0742 0.04 0043 0.11 0016 12.0
12/25/20 53.5 1018 41.1 0227 0.40 2.44 3.17 3.4 21.5 1531 SSW | 203 0.027 0.29 121 40.8 100 43 0.00 0.00 0.2 0.0 0.0 0.0 2.1 2.1 15.0 692 454 246 0.0 0.02 2331 0.09 2335 0.11 0001 12.0
12/24/20 62.5 1305 34.4 0744 0.00 2.04 2.77 0.5 13.8 1330 S | 173 0.045 0.31 207 26.1 77 16 0.00 0.00 2.4 0.0 0.0 0.0 7.9 7.9 5.5 690 452 232 0.0 - - - - - - 12.2
12/23/20 58.3 1506 23.1 0654 0.00 2.04 2.77 0.7 11.5 2207 SSW | 193 0.044 0.31 240 24.8 100 19 0.00 0.00 1.1 0.0 9.0 8.6 15.5 6.5 2.0 682 444 228 0.0 - - - - - - 12.2
12/22/20 56.1 1539 28.2 2337 0.00 2.04 2.77 0.4 8.4 0030 WNW | 294 0.043 0.28 234 32.9 100 31 0.00 0.00 0.8 0.0 6.9 0.0 15.9 9.0 0.0 666 438 226 0.0 - - - - - - 12.2
12/21/20 61.4 1404 28.4 0727 0.00 2.04 2.77 0.9 15.2 1543 SW | 219 0.047 0.28 221 36.5 100 35 0.00 0.00 1.9 0.0 8.6 0.0 13.7 5.2 6.5 650 429 226 0.0 - - - - - - 12.1
Max 74.9 - 43.3 - 0.62 2.66 - 8.8 31.3 - - 0.134 - 289 51.0 100 87 5.70 0.00 9.6 5.8 12.8 8.6 20.9 19.6 22.0 - - - 44.1 0.02 - 0.09 - 0.19 - 12.2
Avg - - - - - 1.48 - 1.5 - - - - - - 37.2 - - 0.37 0.00 1.7 0.8 2.7 0.6 11.6 9.0 8.2 - - - - - - - - - - -
Min 46.5 - 23.1 - 0.00 0.05 - 0.1 5.4 - - 0.015 - 62 13.7 56 7 0.00 0.00 0.0 0.0 0.0 0.0 1.7 1.7 0.0 - - - 0.0 0.01 - 0.01 - 0.01 - 11.9
Total - - - - - - - - - - - - - - - - - 11.22 0.00 50.2 25.1 79.7 16.7 348.3 268.6 246.0 - - - - - - - - - - -

Bell Hill-West Climate Summary

Current Yeaer

Current Year | Showing 1/1/21 - 1/19/21
as of 1/20/21 5:23 PM PST
Temperature (°F) Precip (in) Days
Month Days Avg Max Avg Min Max Max Min Min Total Daily Min Temp < 28 Daily Min Temp < 32 Daily Max Temp > 90 Daily Max Temp > 100 Daily Rain > 0.01 Daily Rain > 0.1
Jan 2021 19 58.8 36.2 74.9 28.1 1.25 0 4 0 0 8 3

Bell Hill-West Climate Summary

Last Year

Last Year | Showing 1/1/20 - 12/31/20
as of 1/20/21 5:23 PM PST
Temperature (°F) Precip (in) Days
Month Days Avg Max Avg Min Max Max Min Min Total Daily Min Temp < 28 Daily Min Temp < 32 Daily Max Temp > 90 Daily Max Temp > 100 Daily Rain > 0.01 Daily Rain > 0.1
Jan 2020 31 55 34.1 69.6 25.8 2.38 3 13 0 0 13 6
Feb 2020 29 66.1 30.9 76.7 23.5 0 4 17 0 0 0 0
Mar 2020 31 59.8 34 80.6 26.6 1.44 2 11 0 0 9 4
Apr 2020 30 70.4 41.2 85.7 27.8 0.84 1 4 0 0 4 3
May 2020 31 76.6 45 95.7 32.9 1.22 0 0 5 0 6 4
Jun 2020 30 85.9 51.7 102.7 36.9 0 0 0 12 1 0 0
Jul 2020 31 92.7 54.5 98.2 45.7 0 0 0 25 0 0 0
Aug 2020 31 93.8 57.2 102.3 49.2 0.12 0 0 27 3 2 0
Sep 2020 30 89.3 50.8 107.8 42.2 0 0 0 12 3 0 0
Oct 2020 31 84.9 43.2 96.4 34.6 0 0 0 11 0 0 0
Nov 2020 30 63.9 31.4 84.5 21.4 0.61 11 18 0 0 3 2
Dec 2020 31 58.7 30.3 73.3 23.1 2.66 13 23 0 0 8 6
Total 366 - - - - 9.27 34 86 92 7 45 25
Average 30.5 74.7 42 - - 0.77 2.8 7.2 7.7 0.6 3.8 2.1
Maximum 31 93.8 57.2 107.8 - 2.66 13 23 27 3 13 6
Minimum 29 55 30.3 - 21.4 0 0 0 0 0 0 0
Calm: 67.0%
Calm: 29.9%